createdAt,value
2024-02-29T00:00:46.289Z,253.70
2024-02-29T00:01:45.450Z,250.30
2024-02-29T00:02:45.302Z,248.30
2024-02-29T00:03:45.323Z,249.40
2024-02-29T00:04:45.378Z,303.80
2024-02-29T00:05:45.280Z,353.90
2024-02-29T00:06:45.283Z,332.90
2024-02-29T00:07:45.273Z,379.40
2024-02-29T00:08:45.290Z,344.40
2024-02-29T00:09:45.301Z,336.00
2024-02-29T00:10:45.304Z,368.00
2024-02-29T00:11:45.271Z,362.60
2024-02-29T00:12:45.271Z,413.90
2024-02-29T00:13:45.268Z,429.70
2024-02-29T00:14:45.259Z,462.80
2024-02-29T00:15:45.271Z,471.70
2024-02-29T00:16:45.254Z,472.60
2024-02-29T00:17:45.258Z,474.50
2024-02-29T00:18:45.280Z,482.30
2024-02-29T00:19:45.195Z,496.90
2024-02-29T00:20:45.218Z,493.60
2024-02-29T00:21:45.209Z,501.30
2024-02-29T00:22:45.218Z,490.80
2024-02-29T00:23:45.196Z,493.10
2024-02-29T00:24:45.197Z,491.50
2024-02-29T00:25:45.172Z,491.90
2024-02-29T00:26:45.265Z,486.20
2024-02-29T00:27:45.194Z,486.80
2024-02-29T00:28:45.144Z,484.40
2024-02-29T00:29:45.136Z,445.20
2024-02-29T00:30:45.202Z,487.10
2024-02-29T00:31:45.141Z,479.30
2024-02-29T00:32:45.174Z,480.60
2024-02-29T00:33:45.180Z,488.50
2024-02-29T00:34:45.088Z,483.50
2024-02-29T00:35:49.335Z,476.80
2024-02-29T00:36:46.248Z,479.80
2024-02-29T00:37:45.098Z,492.50
2024-02-29T00:38:45.084Z,484.30
2024-02-29T00:39:45.094Z,487.20
2024-02-29T00:40:45.150Z,482.90
2024-02-29T00:41:45.110Z,481.90
2024-02-29T00:42:45.091Z,495.80
2024-02-29T00:43:45.063Z,492.80
2024-02-29T00:44:45.084Z,485.70
2024-02-29T00:45:45.128Z,491.50
2024-02-29T00:46:45.115Z,499.50
2024-02-29T00:47:45.041Z,501.40
2024-02-29T00:48:45.040Z,497.80
2024-02-29T00:49:45.019Z,499.80
2024-02-29T00:50:45.008Z,507.70
2024-02-29T00:51:45.108Z,507.80
2024-02-29T00:52:44.979Z,509.00
2024-02-29T00:53:44.995Z,498.10
2024-02-29T00:54:45.015Z,514.00
2024-02-29T00:55:44.967Z,492.10
2024-02-29T00:56:44.988Z,478.60
2024-02-29T00:57:44.988Z,500.50
2024-02-29T00:58:44.957Z,507.60
2024-02-29T00:59:44.942Z,501.50
2024-02-29T01:00:45.078Z,504.30
2024-02-29T01:01:45.091Z,508.50
2024-02-29T01:02:44.976Z,495.90
2024-02-29T01:03:44.929Z,514.30
2024-02-29T01:04:44.919Z,504.40
2024-02-29T01:05:44.925Z,513.20
2024-02-29T01:06:44.933Z,520.10
2024-02-29T01:07:45.078Z,512.80
2024-02-29T01:08:44.904Z,522.70
2024-02-29T01:09:44.936Z,527.80
2024-02-29T01:10:44.934Z,523.20
2024-02-29T01:11:44.894Z,523.20
2024-02-29T01:12:44.984Z,514.50
2024-02-29T01:13:44.867Z,523.30
2024-02-29T01:14:44.865Z,521.40
2024-02-29T01:15:44.923Z,530.50
2024-02-29T01:16:44.864Z,531.90
2024-02-29T01:17:44.838Z,518.10
2024-02-29T01:18:44.847Z,533.00
2024-02-29T01:19:44.857Z,519.50
2024-02-29T01:20:44.826Z,517.40
2024-02-29T01:21:44.841Z,525.90
2024-02-29T01:22:44.827Z,514.00
2024-02-29T01:23:44.803Z,522.00
2024-02-29T01:24:44.835Z,514.80
2024-02-29T01:25:45.796Z,512.50
2024-02-29T01:26:44.788Z,515.50
2024-02-29T01:27:44.869Z,507.70
2024-02-29T01:28:44.815Z,519.20
2024-02-29T01:29:44.778Z,530.60
2024-02-29T01:30:44.859Z,517.70
2024-02-29T01:31:44.767Z,499.20
2024-02-29T01:32:44.762Z,509.90
2024-02-29T01:33:44.754Z,501.20
2024-02-29T01:34:44.722Z,502.10
2024-02-29T01:35:44.716Z,497.50
2024-02-29T01:36:44.747Z,497.00
2024-02-29T01:37:44.720Z,494.30
2024-02-29T01:38:44.690Z,496.00
2024-02-29T01:39:44.775Z,480.70
2024-02-29T01:40:44.711Z,488.50
2024-02-29T01:41:44.668Z,478.70
2024-02-29T01:42:44.755Z,476.10
2024-02-29T01:43:44.658Z,470.20
2024-02-29T01:44:44.740Z,477.30
2024-02-29T01:45:44.732Z,495.40
2024-02-29T01:46:44.688Z,479.60
2024-02-29T01:47:44.683Z,488.10
2024-02-29T01:48:44.628Z,462.70
2024-02-29T01:49:44.639Z,488.40
2024-02-29T01:50:44.661Z,470.90
2024-02-29T01:51:44.648Z,468.80
2024-02-29T01:52:44.627Z,472.00
2024-02-29T01:53:44.601Z,476.40
2024-02-29T01:54:45.630Z,478.00
2024-02-29T01:55:44.608Z,498.80
2024-02-29T01:56:44.614Z,475.80
2024-02-29T01:57:44.621Z,465.30
2024-02-29T01:58:44.569Z,461.40
2024-02-29T01:59:44.569Z,450.20
2024-02-29T02:00:44.609Z,455.40
2024-02-29T02:01:44.669Z,458.40
2024-02-29T02:02:44.542Z,441.70
2024-02-29T02:03:44.610Z,450.00
2024-02-29T02:04:44.583Z,435.30
2024-02-29T02:05:44.531Z,428.10
2024-02-29T02:06:44.524Z,431.40
2024-02-29T02:07:44.543Z,411.90
2024-02-29T02:08:44.511Z,406.30
2024-02-29T02:09:44.519Z,426.30
2024-02-29T02:10:44.609Z,436.30
2024-02-29T02:11:44.540Z,451.20
2024-02-29T02:12:44.808Z,465.00
2024-02-29T02:13:44.507Z,472.70
2024-02-29T02:14:44.485Z,476.70
2024-02-29T02:15:44.510Z,474.10
2024-02-29T02:16:44.463Z,472.80
2024-02-29T02:17:44.484Z,466.70
2024-02-29T02:18:44.519Z,491.30
2024-02-29T02:19:44.468Z,484.90
2024-02-29T02:20:44.466Z,467.90
2024-02-29T02:21:44.476Z,468.40
2024-02-29T02:22:44.414Z,475.90
2024-02-29T02:23:44.435Z,488.60
2024-02-29T02:24:44.442Z,507.00
2024-02-29T02:25:44.410Z,514.20
2024-02-29T02:26:44.412Z,516.10
2024-02-29T02:27:44.482Z,523.90
2024-02-29T02:28:44.438Z,529.10
2024-02-29T02:29:44.489Z,546.10
2024-02-29T02:30:44.384Z,545.60
2024-02-29T02:31:44.401Z,549.40
2024-02-29T02:32:44.425Z,541.20
2024-02-29T02:33:44.444Z,532.20
2024-02-29T02:34:44.396Z,553.90
2024-02-29T02:35:44.361Z,551.50
2024-02-29T02:36:44.372Z,547.50
2024-02-29T02:37:44.368Z,542.00
2024-02-29T02:38:44.360Z,532.00
2024-02-29T02:39:44.395Z,541.20
2024-02-29T02:40:44.336Z,536.70
2024-02-29T02:41:44.331Z,552.00
2024-02-29T02:42:45.399Z,550.40
2024-02-29T02:43:44.330Z,551.20
2024-02-29T02:44:44.341Z,555.10
2024-02-29T02:45:44.337Z,556.10
2024-02-29T02:46:44.272Z,542.90
2024-02-29T02:47:44.329Z,542.60
2024-02-29T02:48:44.297Z,533.90
2024-02-29T02:49:44.261Z,516.10
2024-02-29T02:50:44.512Z,528.50
2024-02-29T02:51:44.316Z,528.30
2024-02-29T02:52:44.277Z,536.70
2024-02-29T02:53:44.273Z,527.30
2024-02-29T02:54:44.280Z,532.90
2024-02-29T02:55:44.253Z,581.60
2024-02-29T02:56:44.279Z,735.40
2024-02-29T02:57:44.231Z,659.50
2024-02-29T02:58:44.246Z,563.00
2024-02-29T02:59:44.244Z,548.90
2024-02-29T03:00:44.272Z,577.70
2024-02-29T03:01:44.302Z,584.50
2024-02-29T03:02:44.220Z,556.00
2024-02-29T03:03:44.213Z,499.50
2024-02-29T03:04:44.204Z,451.30
2024-02-29T03:05:44.178Z,412.10
2024-02-29T03:06:45.253Z,388.70
2024-02-29T03:07:44.197Z,372.70
2024-02-29T03:08:44.168Z,361.80
2024-02-29T03:09:44.241Z,375.30
2024-02-29T03:10:44.190Z,380.30
2024-02-29T03:11:44.174Z,342.90
2024-02-29T03:12:44.170Z,309.30
2024-02-29T03:13:44.179Z,306.00
2024-02-29T03:14:44.155Z,309.00
2024-02-29T03:15:44.203Z,298.70
2024-02-29T03:16:44.151Z,283.10
2024-02-29T03:17:44.144Z,283.30
2024-02-29T03:18:44.159Z,304.90
2024-02-29T03:19:44.112Z,343.00
2024-02-29T03:20:44.195Z,366.30
2024-02-29T03:21:44.170Z,379.90
2024-02-29T03:22:44.104Z,391.40
2024-02-29T03:23:44.131Z,403.20
2024-02-29T03:24:44.119Z,414.80
2024-02-29T03:25:45.080Z,414.80
2024-02-29T03:26:44.084Z,404.70
2024-02-29T03:27:44.121Z,405.40
2024-02-29T03:28:44.079Z,392.70
2024-02-29T03:29:44.072Z,380.20
2024-02-29T03:30:44.060Z,382.90
2024-02-29T03:31:44.052Z,372.60
2024-02-29T03:32:44.095Z,385.80
2024-02-29T03:33:44.117Z,399.90
2024-02-29T03:34:44.046Z,408.80
2024-02-29T03:35:44.069Z,421.70
2024-02-29T03:36:44.097Z,411.20
2024-02-29T03:37:44.012Z,395.20
2024-02-29T03:38:44.026Z,390.80
2024-02-29T03:39:44.036Z,376.60
2024-02-29T03:40:44.000Z,369.70
2024-02-29T03:41:44.001Z,357.20
2024-02-29T03:42:44.073Z,357.60
2024-02-29T03:43:43.995Z,359.60
2024-02-29T03:44:44.015Z,341.50
2024-02-29T03:45:44.004Z,345.30
2024-02-29T03:46:43.976Z,338.70
2024-02-29T03:47:44.015Z,334.20
2024-02-29T03:48:43.973Z,332.90
2024-02-29T03:49:43.987Z,334.50
2024-02-29T03:50:43.958Z,336.60
2024-02-29T03:51:44.002Z,334.80
2024-02-29T03:52:43.951Z,331.50
2024-02-29T03:53:43.932Z,330.50
2024-02-29T03:54:43.942Z,329.00
2024-02-29T03:55:44.776Z,321.10
2024-02-29T03:56:43.928Z,318.30
2024-02-29T03:57:43.911Z,337.00
2024-02-29T03:58:43.910Z,335.50
2024-02-29T03:59:43.895Z,333.80
2024-02-29T04:00:43.902Z,341.50
2024-02-29T04:01:44.030Z,345.50
2024-02-29T04:02:43.877Z,350.20
2024-02-29T04:03:43.933Z,361.80
2024-02-29T04:04:43.868Z,358.60
2024-02-29T04:05:43.901Z,361.00
2024-02-29T04:06:43.945Z,377.70
2024-02-29T04:07:43.923Z,377.60
2024-02-29T04:08:43.865Z,381.30
2024-02-29T04:09:43.901Z,389.00
2024-02-29T04:10:43.881Z,386.90
2024-02-29T04:11:43.827Z,392.60
2024-02-29T04:12:43.845Z,392.80
2024-02-29T04:13:43.827Z,399.70
2024-02-29T04:14:43.826Z,395.20
2024-02-29T04:15:44.782Z,385.80
2024-02-29T04:16:43.830Z,385.20
2024-02-29T04:17:43.843Z,381.70
2024-02-29T04:18:43.807Z,379.80
2024-02-29T04:19:43.770Z,387.30
2024-02-29T04:20:43.788Z,391.70
2024-02-29T04:21:43.876Z,394.70
2024-02-29T04:22:43.790Z,389.70
2024-02-29T04:23:43.817Z,393.10
2024-02-29T04:24:43.922Z,391.50
2024-02-29T04:25:43.772Z,393.00
2024-02-29T04:26:43.758Z,391.90
2024-02-29T04:27:43.761Z,397.10
2024-02-29T04:28:43.736Z,403.60
2024-02-29T04:29:43.747Z,402.80
2024-02-29T04:30:43.903Z,396.20
2024-02-29T04:31:43.746Z,394.70
2024-02-29T04:32:43.777Z,394.10
2024-02-29T04:33:43.727Z,397.60
2024-02-29T04:34:43.685Z,392.80
2024-02-29T04:35:43.710Z,394.30
2024-02-29T04:36:43.778Z,395.50
2024-02-29T04:37:43.684Z,395.80
2024-02-29T04:38:43.686Z,399.30
2024-02-29T04:39:43.698Z,400.00
2024-02-29T04:40:43.676Z,397.70
2024-02-29T04:41:43.695Z,400.40
2024-02-29T04:42:43.675Z,398.70
2024-02-29T04:43:43.618Z,399.40
2024-02-29T04:44:44.628Z,391.80
2024-02-29T04:45:43.662Z,392.80
2024-02-29T04:46:43.679Z,393.00
2024-02-29T04:47:43.649Z,396.70
2024-02-29T04:48:43.733Z,392.80
2024-02-29T04:49:43.616Z,388.20
2024-02-29T04:50:43.608Z,389.20
2024-02-29T04:51:43.691Z,391.80
2024-02-29T04:52:43.618Z,391.20
2024-02-29T04:53:43.609Z,391.50
2024-02-29T04:54:43.645Z,396.20
2024-02-29T04:55:43.578Z,395.60
2024-02-29T04:56:43.569Z,395.80
2024-02-29T04:57:43.607Z,397.80
2024-02-29T04:58:43.634Z,402.80
2024-02-29T04:59:43.554Z,400.30
2024-02-29T05:00:43.672Z,397.90
2024-02-29T05:01:43.641Z,407.80
2024-02-29T05:02:43.548Z,405.10
2024-02-29T05:03:43.588Z,407.80
2024-02-29T05:04:43.528Z,401.10
2024-02-29T05:05:43.528Z,402.80
2024-02-29T05:06:43.562Z,403.00
2024-02-29T05:07:43.543Z,405.10
2024-02-29T05:08:43.561Z,404.10
2024-02-29T05:09:43.555Z,403.60
2024-02-29T05:10:43.539Z,395.40
2024-02-29T05:11:43.479Z,398.80
2024-02-29T05:12:43.504Z,406.40
2024-02-29T05:13:43.497Z,402.70
2024-02-29T05:14:43.551Z,403.40
2024-02-29T05:15:43.529Z,402.00
2024-02-29T05:16:43.487Z,405.00
2024-02-29T05:17:43.502Z,407.70
2024-02-29T05:18:43.531Z,404.80
2024-02-29T05:19:43.495Z,409.90
2024-02-29T05:20:43.532Z,409.20
2024-02-29T05:21:43.486Z,406.00
2024-02-29T05:22:43.437Z,409.70
2024-02-29T05:23:43.466Z,414.10
2024-02-29T05:24:43.494Z,412.00
2024-02-29T05:25:43.464Z,414.80
2024-02-29T05:26:43.760Z,414.90
2024-02-29T05:27:43.447Z,414.60
2024-02-29T05:28:43.427Z,414.90
2024-02-29T05:29:44.265Z,407.80
2024-02-29T05:30:43.462Z,415.00
2024-02-29T05:31:43.439Z,413.90
2024-02-29T05:32:43.448Z,414.90
2024-02-29T05:33:43.498Z,408.90
2024-02-29T05:34:43.386Z,407.40
2024-02-29T05:35:43.391Z,412.50
2024-02-29T05:36:43.497Z,413.30
2024-02-29T05:37:43.371Z,416.10
2024-02-29T05:38:43.379Z,419.60
2024-02-29T05:39:43.492Z,421.80
2024-02-29T05:40:43.368Z,416.30
2024-02-29T05:41:43.342Z,414.10
2024-02-29T05:42:43.420Z,417.20
2024-02-29T05:43:43.356Z,428.00
2024-02-29T05:44:43.381Z,416.80
2024-02-29T05:45:43.383Z,431.20
2024-02-29T05:46:43.336Z,425.80
2024-02-29T05:47:43.375Z,425.30
2024-02-29T05:48:43.455Z,435.80
2024-02-29T05:49:43.344Z,434.00
2024-02-29T05:50:43.340Z,436.10
2024-02-29T05:51:43.418Z,431.00
2024-02-29T05:52:43.356Z,432.90
2024-02-29T05:53:43.376Z,437.80
2024-02-29T05:54:43.347Z,439.10
2024-02-29T05:55:43.436Z,435.10
2024-02-29T05:56:43.288Z,439.50
2024-02-29T05:57:43.556Z,434.50
2024-02-29T05:58:43.276Z,441.50
2024-02-29T05:59:43.295Z,439.90
2024-02-29T06:00:43.344Z,446.40
2024-02-29T06:01:43.353Z,445.80
2024-02-29T06:02:43.312Z,447.70
2024-02-29T06:03:43.374Z,438.60
2024-02-29T06:04:43.256Z,442.30
2024-02-29T06:05:43.249Z,451.40
2024-02-29T06:06:43.250Z,448.60
2024-02-29T06:07:43.238Z,448.70
2024-02-29T06:08:43.215Z,453.30
2024-02-29T06:09:43.237Z,450.20
2024-02-29T06:10:43.228Z,457.10
2024-02-29T06:11:43.190Z,459.50
2024-02-29T06:12:43.242Z,461.30
2024-02-29T06:13:43.236Z,454.30
2024-02-29T06:14:43.208Z,465.10
2024-02-29T06:15:43.444Z,460.40
2024-02-29T06:16:43.185Z,458.20
2024-02-29T06:17:43.207Z,467.60
2024-02-29T06:18:43.186Z,469.20
2024-02-29T06:19:43.142Z,455.50
2024-02-29T06:20:43.263Z,457.70
2024-02-29T06:21:43.188Z,458.00
2024-02-29T06:22:43.153Z,460.60
2024-02-29T06:23:43.250Z,457.10
2024-02-29T06:24:43.124Z,450.90
2024-02-29T06:25:43.132Z,453.70
2024-02-29T06:26:43.136Z,461.40
2024-02-29T06:27:43.123Z,447.90
2024-02-29T06:28:43.112Z,444.00
2024-02-29T06:29:43.119Z,467.10
2024-02-29T06:30:43.184Z,442.20
2024-02-29T06:31:43.125Z,438.80
2024-02-29T06:32:43.129Z,438.90
2024-02-29T06:33:43.132Z,449.70
2024-02-29T06:34:43.092Z,427.90
2024-02-29T06:35:43.102Z,436.80
2024-02-29T06:36:43.126Z,426.70
2024-02-29T06:37:43.076Z,430.20
2024-02-29T06:38:43.078Z,425.10
2024-02-29T06:39:43.120Z,420.70
2024-02-29T06:40:43.117Z,421.10
2024-02-29T06:41:43.087Z,428.40
2024-02-29T06:42:43.173Z,424.70
2024-02-29T06:43:43.048Z,421.90
2024-02-29T06:44:44.033Z,415.70
2024-02-29T06:45:43.051Z,415.80
2024-02-29T06:46:43.064Z,414.50
2024-02-29T06:47:43.779Z,418.90
2024-02-29T06:48:43.035Z,429.50
2024-02-29T06:49:42.982Z,410.60
2024-02-29T06:50:43.049Z,401.30
2024-02-29T06:51:43.018Z,404.90
2024-02-29T06:52:42.953Z,399.30
2024-02-29T06:53:42.974Z,400.00
2024-02-29T06:54:43.015Z,407.10
2024-02-29T06:55:42.966Z,411.80
2024-02-29T06:56:42.966Z,426.20
2024-02-29T06:57:42.957Z,423.30
2024-02-29T06:58:42.942Z,409.70
2024-02-29T06:59:42.943Z,409.10
2024-02-29T07:00:42.989Z,407.70
2024-02-29T07:01:43.001Z,402.40
2024-02-29T07:02:42.931Z,386.70
2024-02-29T07:03:42.968Z,382.00
2024-02-29T07:04:42.943Z,374.90
2024-02-29T07:05:42.938Z,364.40
2024-02-29T07:06:43.112Z,361.50
2024-02-29T07:07:42.929Z,350.90
2024-02-29T07:08:42.948Z,353.50
2024-02-29T07:09:42.893Z,357.10
2024-02-29T07:10:42.886Z,356.20
2024-02-29T07:11:43.020Z,356.90
2024-02-29T07:12:42.918Z,358.50
2024-02-29T07:13:42.881Z,357.40
2024-02-29T07:14:42.886Z,350.40
2024-02-29T07:15:42.899Z,350.00
2024-02-29T07:16:42.842Z,339.00
2024-02-29T07:17:42.857Z,343.00
2024-02-29T07:18:42.964Z,342.10
2024-02-29T07:19:42.835Z,327.20
2024-02-29T07:20:42.913Z,325.70
2024-02-29T07:21:42.823Z,321.40
2024-02-29T07:22:42.876Z,320.20
2024-02-29T07:23:42.785Z,309.10
2024-02-29T07:24:42.819Z,312.10
2024-02-29T07:25:42.790Z,317.90
2024-02-29T07:26:42.857Z,316.10
2024-02-29T07:27:42.816Z,320.10
2024-02-29T07:28:42.783Z,293.00
2024-02-29T07:29:42.766Z,243.80
2024-02-29T07:30:42.807Z,204.10
2024-02-29T07:31:42.774Z,198.20
2024-02-29T07:32:42.806Z,188.30
2024-02-29T07:33:42.846Z,172.70
2024-02-29T07:34:42.799Z,170.00
2024-02-29T07:35:42.774Z,127.10
2024-02-29T07:36:42.810Z,155.50
2024-02-29T07:37:42.789Z,126.70
2024-02-29T07:38:42.751Z,153.20
2024-02-29T07:39:42.750Z,117.30
2024-02-29T07:40:42.756Z,148.00
2024-02-29T07:41:42.709Z,133.80
2024-02-29T07:42:42.790Z,101.70
2024-02-29T07:43:42.693Z,100.30
2024-02-29T07:44:42.704Z,101.40
2024-02-29T07:45:42.730Z,57.20
2024-02-29T07:46:42.681Z,67.70
2024-02-29T07:47:42.714Z,90.00
2024-02-29T07:48:42.682Z,118.70
2024-02-29T07:49:42.633Z,84.10
2024-02-29T07:50:42.658Z,79.20
2024-02-29T07:51:42.719Z,66.80
2024-02-29T07:52:42.699Z,45.10
2024-02-29T07:53:42.637Z,62.40
2024-02-29T07:54:42.661Z,123.60
2024-02-29T07:55:42.647Z,137.40
2024-02-29T07:56:42.679Z,130.60
2024-02-29T07:57:42.647Z,135.50
2024-02-29T07:58:42.602Z,131.40
2024-02-29T07:59:42.594Z,128.50
2024-02-29T08:00:42.627Z,134.40
2024-02-29T08:01:42.605Z,99.80
2024-02-29T08:02:42.574Z,104.80
2024-02-29T08:03:42.601Z,61.60
2024-02-29T08:04:42.621Z,96.70
2024-02-29T08:05:42.559Z,112.20
2024-02-29T08:06:42.556Z,124.50
2024-02-29T08:07:42.567Z,112.90
2024-02-29T08:08:42.537Z,93.40
2024-02-29T08:09:42.591Z,64.60
2024-02-29T08:10:42.533Z,48.60
2024-02-29T08:11:42.597Z,40.70
2024-02-29T08:12:42.575Z,37.60
2024-02-29T08:13:42.534Z,39.70
2024-02-29T08:14:42.513Z,36.10
2024-02-29T08:15:42.547Z,45.50
2024-02-29T08:16:42.521Z,47.90
2024-02-29T08:17:42.505Z,47.90
2024-02-29T08:18:43.168Z,36.40
2024-02-29T08:19:42.513Z,28.60
2024-02-29T08:20:42.541Z,23.50
2024-02-29T08:21:42.490Z,23.60
2024-02-29T08:22:42.487Z,23.90
2024-02-29T08:23:42.524Z,27.50
2024-02-29T08:24:42.533Z,57.80
2024-02-29T08:25:42.466Z,44.60
2024-02-29T08:26:42.437Z,73.90
2024-02-29T08:27:42.540Z,43.50
2024-02-29T08:28:42.539Z,39.70
2024-02-29T08:29:42.495Z,38.70
2024-02-29T08:30:42.476Z,40.80
2024-02-29T08:31:42.571Z,34.40
2024-02-29T08:32:42.506Z,31.00
2024-02-29T08:33:42.538Z,27.10
2024-02-29T08:34:42.515Z,27.30
2024-02-29T08:35:42.399Z,27.00
2024-02-29T08:36:42.428Z,30.20
2024-02-29T08:37:42.372Z,33.70
2024-02-29T08:38:42.366Z,39.60
2024-02-29T08:39:42.694Z,40.20
2024-02-29T08:40:42.551Z,41.70
2024-02-29T08:41:42.359Z,39.30
2024-02-29T08:42:42.403Z,30.70
2024-02-29T08:43:42.340Z,26.80
2024-02-29T08:44:42.346Z,22.60
2024-02-29T08:45:42.379Z,20.90
2024-02-29T08:46:42.321Z,19.70
2024-02-29T08:47:42.440Z,19.50
2024-02-29T08:48:42.346Z,19.90
2024-02-29T08:49:42.304Z,19.70
2024-02-29T08:50:42.334Z,25.10
2024-02-29T08:51:42.390Z,19.80
2024-02-29T08:52:42.286Z,21.50
2024-02-29T08:53:42.282Z,22.20
2024-02-29T08:54:42.275Z,20.20
2024-02-29T08:55:42.285Z,20.40
2024-02-29T08:56:42.264Z,17.70
2024-02-29T08:57:42.289Z,16.70
2024-02-29T08:58:42.243Z,18.70
2024-02-29T08:59:42.229Z,18.40
2024-02-29T09:00:42.295Z,20.30
2024-02-29T09:01:42.313Z,19.90
2024-02-29T09:02:42.232Z,19.00
2024-02-29T09:03:42.214Z,19.00
2024-02-29T09:04:42.244Z,20.40
2024-02-29T09:05:42.194Z,22.00
2024-02-29T09:06:42.443Z,26.90
2024-02-29T09:07:42.229Z,28.50
2024-02-29T09:08:42.186Z,28.00
2024-02-29T09:09:42.213Z,24.70
2024-02-29T09:10:42.167Z,20.20
2024-02-29T09:11:42.180Z,21.40
2024-02-29T09:12:42.254Z,31.50
2024-02-29T09:13:43.264Z,29.00
2024-02-29T09:14:42.191Z,30.30
2024-02-29T09:15:42.183Z,32.10
2024-02-29T09:16:42.122Z,28.10
2024-02-29T09:17:42.159Z,27.70
2024-02-29T09:18:42.159Z,23.50
2024-02-29T09:19:42.106Z,23.70
2024-02-29T09:20:42.103Z,19.20
2024-02-29T09:21:42.117Z,24.20
2024-02-29T09:22:42.105Z,20.20
2024-02-29T09:23:42.153Z,20.70
2024-02-29T09:24:42.127Z,29.80
2024-02-29T09:25:42.081Z,21.30
2024-02-29T09:26:42.077Z,22.30
2024-02-29T09:27:42.076Z,19.00
2024-02-29T09:28:42.118Z,22.80
2024-02-29T09:29:42.067Z,20.70
2024-02-29T09:30:42.095Z,28.60
2024-02-29T09:31:42.039Z,25.70
2024-02-29T09:32:42.051Z,23.30
2024-02-29T09:33:42.169Z,25.00
2024-02-29T09:34:46.068Z,27.30
2024-02-29T09:35:44.054Z,28.70
2024-02-29T09:36:42.005Z,35.00
2024-02-29T09:37:41.997Z,31.40
2024-02-29T09:38:41.996Z,34.00
2024-02-29T09:39:42.069Z,34.10
2024-02-29T09:40:49.199Z,32.00
2024-02-29T09:41:59.636Z,29.60
2024-02-29T09:42:42.986Z,30.20
2024-02-29T09:43:41.970Z,20.20
2024-02-29T09:44:41.962Z,25.10
2024-02-29T09:45:41.980Z,23.90
2024-02-29T09:46:41.963Z,23.60
2024-02-29T09:47:42.970Z,22.90
2024-02-29T09:48:41.928Z,21.40
2024-02-29T09:49:42.325Z,21.20
2024-02-29T09:50:42.946Z,21.40
2024-02-29T09:51:41.964Z,21.20
2024-02-29T09:52:41.905Z,21.90
2024-02-29T09:53:41.903Z,20.50
2024-02-29T09:54:41.935Z,19.60
2024-02-29T09:55:41.919Z,20.70
2024-02-29T09:56:41.908Z,21.30
2024-02-29T09:57:41.923Z,19.60
2024-02-29T09:58:41.845Z,19.90
2024-02-29T09:59:41.911Z,20.10
2024-02-29T10:00:41.946Z,21.30
2024-02-29T10:01:42.001Z,22.20
2024-02-29T10:02:41.849Z,22.20
2024-02-29T10:03:41.852Z,22.70
2024-02-29T10:04:41.822Z,25.10
2024-02-29T10:05:41.846Z,25.10
2024-02-29T10:06:41.863Z,29.30
2024-02-29T10:07:41.830Z,26.90
2024-02-29T10:08:41.805Z,24.40
2024-02-29T10:09:41.824Z,27.30
2024-02-29T10:10:41.808Z,22.50
2024-02-29T10:11:42.805Z,41.70
2024-02-29T10:12:41.783Z,24.00
2024-02-29T10:13:41.807Z,31.20
2024-02-29T10:14:41.748Z,26.20
2024-02-29T10:15:41.792Z,24.60
2024-02-29T10:16:42.768Z,22.70
2024-02-29T10:17:41.798Z,22.30
2024-02-29T10:18:41.742Z,23.70
2024-02-29T10:19:41.739Z,21.70
2024-02-29T10:20:41.733Z,22.50
2024-02-29T10:21:41.724Z,23.40
2024-02-29T10:22:41.722Z,22.50
2024-02-29T10:23:41.724Z,24.70
2024-02-29T10:24:41.710Z,25.10
2024-02-29T10:25:41.672Z,23.90
2024-02-29T10:26:41.691Z,24.90
2024-02-29T10:27:41.932Z,28.10
2024-02-29T10:28:41.692Z,25.60
2024-02-29T10:29:41.687Z,25.60
2024-02-29T10:30:41.741Z,23.30
2024-02-29T10:31:41.632Z,25.40
2024-02-29T10:32:41.672Z,23.50
2024-02-29T10:33:41.673Z,31.00
2024-02-29T10:34:41.641Z,24.80
2024-02-29T10:35:41.623Z,22.50
2024-02-29T10:36:41.771Z,23.20
2024-02-29T10:37:41.605Z,27.60
2024-02-29T10:38:41.594Z,23.70
2024-02-29T10:39:41.629Z,23.80
2024-02-29T10:40:41.577Z,26.00
2024-02-29T10:41:41.605Z,23.50
2024-02-29T10:42:41.610Z,26.40
2024-02-29T10:43:41.589Z,22.00
2024-02-29T10:44:41.580Z,20.00
2024-02-29T10:45:41.613Z,28.80
2024-02-29T10:46:41.585Z,20.80
2024-02-29T10:47:41.600Z,25.20
2024-02-29T10:48:41.577Z,24.30
2024-02-29T10:49:41.553Z,21.70
2024-02-29T10:50:41.522Z,21.00
2024-02-29T10:51:41.548Z,22.10
2024-02-29T10:52:41.532Z,22.00
2024-02-29T10:53:41.537Z,23.10
2024-02-29T10:54:41.542Z,23.10
2024-02-29T10:55:41.540Z,22.50
2024-02-29T10:56:43.239Z,21.50
2024-02-29T10:57:42.513Z,21.10
2024-02-29T10:58:41.501Z,20.80
2024-02-29T10:59:41.471Z,22.20
2024-02-29T11:00:41.541Z,21.70
2024-02-29T11:01:41.543Z,21.20
2024-02-29T11:02:41.469Z,22.30
2024-02-29T11:03:41.493Z,20.60
2024-02-29T11:04:42.211Z,21.90
2024-02-29T11:05:41.454Z,21.60
2024-02-29T11:06:41.463Z,23.90
2024-02-29T11:07:41.503Z,21.80
2024-02-29T11:08:41.650Z,22.20
2024-02-29T11:09:41.542Z,23.10
2024-02-29T11:10:41.470Z,21.20
2024-02-29T11:11:41.412Z,22.00
2024-02-29T11:12:41.533Z,22.90
2024-02-29T11:13:41.388Z,21.10
2024-02-29T11:14:41.409Z,19.80
2024-02-29T11:15:41.578Z,21.70
2024-02-29T11:16:41.389Z,21.10
2024-02-29T11:17:42.412Z,21.10
2024-02-29T11:18:41.403Z,21.00
2024-02-29T11:19:47.988Z,21.40
2024-02-29T11:20:43.359Z,18.90
2024-02-29T11:21:41.409Z,22.30
2024-02-29T11:22:41.340Z,19.10
2024-02-29T11:23:41.332Z,19.40
2024-02-29T11:24:41.580Z,19.70
2024-02-29T11:25:41.432Z,20.90
2024-02-29T11:26:41.297Z,21.60
2024-02-29T11:27:41.333Z,23.90
2024-02-29T11:28:41.292Z,21.10
2024-02-29T11:29:41.344Z,20.70
2024-02-29T11:30:41.341Z,18.80
2024-02-29T11:31:41.259Z,21.80
2024-02-29T11:32:41.260Z,21.80
2024-02-29T11:33:41.299Z,20.90
2024-02-29T11:34:41.250Z,21.40
2024-02-29T11:35:41.299Z,19.60
2024-02-29T11:36:41.287Z,19.90
2024-02-29T11:37:41.303Z,19.70
2024-02-29T11:38:41.296Z,18.40
2024-02-29T11:39:41.252Z,21.20
2024-02-29T11:40:41.236Z,19.80
2024-02-29T11:41:41.301Z,19.00
2024-02-29T11:42:41.240Z,19.30
2024-02-29T11:43:41.206Z,17.30
2024-02-29T11:44:41.195Z,17.80
2024-02-29T11:45:41.212Z,20.20
2024-02-29T11:46:41.173Z,18.70
2024-02-29T11:47:41.289Z,18.10
2024-02-29T11:48:41.208Z,17.20
2024-02-29T11:49:41.177Z,17.60
2024-02-29T11:50:41.173Z,17.40
2024-02-29T11:51:41.177Z,17.10
2024-02-29T11:52:41.153Z,18.60
2024-02-29T11:53:41.160Z,19.70
2024-02-29T11:54:41.162Z,18.10
2024-02-29T11:55:41.159Z,17.30
2024-02-29T11:56:41.158Z,18.20
2024-02-29T11:57:42.154Z,17.60
2024-02-29T11:58:41.128Z,19.30
2024-02-29T11:59:41.117Z,18.20
2024-02-29T12:00:41.188Z,18.60
2024-02-29T12:01:41.183Z,16.90
2024-02-29T12:02:41.097Z,17.10
2024-02-29T12:03:41.258Z,17.00
2024-02-29T12:04:41.075Z,16.40
2024-02-29T12:05:41.107Z,22.30
2024-02-29T12:06:41.172Z,16.00
2024-02-29T12:07:41.073Z,17.20
2024-02-29T12:08:41.158Z,19.30
2024-02-29T12:09:41.082Z,17.10
2024-02-29T12:10:49.256Z,16.80
2024-02-29T12:11:42.087Z,16.60
2024-02-29T12:12:41.174Z,18.00
2024-02-29T12:13:41.051Z,20.50
2024-02-29T12:14:41.045Z,16.00
2024-02-29T12:15:41.191Z,16.50
2024-02-29T12:16:41.044Z,16.70
2024-02-29T12:17:41.066Z,17.40
2024-02-29T12:18:41.040Z,16.00
2024-02-29T12:19:41.001Z,18.20
2024-02-29T12:20:42.002Z,16.60
2024-02-29T12:21:41.037Z,18.30
2024-02-29T12:22:41.054Z,26.10
2024-02-29T12:23:40.993Z,27.90
2024-02-29T12:24:41.118Z,17.70
2024-02-29T12:25:40.993Z,17.30
2024-02-29T12:26:40.981Z,16.30
2024-02-29T12:27:42.956Z,16.80
2024-02-29T12:28:40.953Z,15.80
2024-02-29T12:29:40.968Z,16.90
2024-02-29T12:30:40.975Z,18.00
2024-02-29T12:31:40.935Z,19.10
2024-02-29T12:32:41.037Z,16.40
2024-02-29T12:33:41.204Z,18.60
2024-02-29T12:34:41.021Z,19.40
2024-02-29T12:35:40.923Z,15.60
2024-02-29T12:36:40.944Z,17.00
2024-02-29T12:37:40.929Z,17.00